Ana Sayfa
METAR-TAF:

METAR-TAF

Havaalanları :

Mountain Empire Airport

Marion / Wytheville, Virginia, Amerika Birleşik Devletleri

Enlem: 36-54N, Boylam: 081-21W, yükseklik: 780 m

Güncel hava durumu gözlemi

Rapor saat 05:35 UTC de 7 dakika önce yapıldı.
Sakin rüzgar
Sıcaklık 13°C
Nem 88%
Basınç 1014 hPa
Görüş mesafesi: 16.1 km
2700 ft yükseklikte parçalı çok bulutlu
3100 ft yükseklikte çok bulutlu

METAR: KMKJ 100535Z AUTO 00000KT 10SM BKN027 OVC031 13/11 A2993 RMK AO2 T01260110

Saat: 00:42 (05:42 UTC)


TAF: eksik

4.000'den fazla havaalanı için hava durumu gözlemleri ve tahminleri (METAR ve TAF raporları).

Kullanılabilir istasyonlar harita üzerinde sarı ve kırmızı noktalarla gösterilir.

İstasyonun adını görmek için fareyi noktanın üzerinde gezdirin.

Sonrasında hava gözlem ve tahminlerini görmek için tıklayın.

Haritayı değiştirmek için: yaklaştırmak için siyah artı işaretli yeşil düğmeye ve uzaklaştırmak için de eksi işaretli düğmeye hızla tıklayın; bitişik haritalar için yeşil okları kullanın.


METAR-TAF: